Airfield :
LOGIN :

Register | Disclaimer

   EN    FR    IT 

 










Legend :    VFR   Marginal VFR   IFR   Intensive IFR   Very Intensive IFR
Visi :
Ceiling :
>= 8 km
>= 3000ft
5 to 8 km
1000 to 3000 ft
1500m to 5 km
500 to 1000 ft
800 to 1500m
200 to 500 ft
< 800m
< 200 ft
Symbols :   Thunderstorms  Fog  Heavy snow  Heavy precipitations  Wind > 20 kt
SIGMETs :     Misc.  Thunderstorms  Icing  Turbulence  Mountain Waves  Volcanic Ashes






- Airport Elevation : 479 ft
- IATA code : DOL


LFRG - Deauville

CURRENT METAR :
  • 262100Z AUTO 19012KT 160V220 9999 -RA BKN009/// BKN014/// OVC046/// ///CB 09/08 Q1010 TEMPO 20015G25KT 3000 RA BKN007

EXPIRED METARs :
  • 262030Z AUTO 19014KT 5000 +RA BR OVC012/// ///CB 09/08 Q1011 TEMPO 20015G25KT BKN007 BECMG NSW
  • 262000Z AUTO 19014KT 9999 BKN014/// BKN048/// OVC054/// ///TCU 09/08 Q1011 TEMPO 3000 RA BKN007 BECMG 20015G25KT
  • 261930Z AUTO 18014KT 9999 BKN015/// BKN031/// BKN048/// ///CB 09/08 Q1011 TEMPO 3000 RA BKN007 BECMG 20015G25KT
  • 261900Z AUTO 19012KT 9999 -RA SCT018/// SCT032/// BKN045/// ///CB 09/08 Q1011 TEMPO 3000 RA BKN007 BECMG 20015G25KT
  • 261830Z AUTO 19014KT 9999 SCT019/// SCT044/// BKN056/// ///TCU 10/07 Q1011 TEMPO 3000 RA BKN007 BECMG 20015G25KT

TAF TAF LFRG
Valid from the 26 at 15:00 until the 27 at 00:00 UTC


261400Z 2615/2624 20015G25KT 9999 BKN020
TEMPO 2615/2622 3000 RA BKN007
BECMG 2622/2624 20010KT
PROB30
TEMPO 2622/2624 BKN007
ATIS : +33 2 31 65 65 36



MET'MAP, your aeronautical weather chart ! - Copyright ORBIFLY December 2007 - Disclaimer

ORBIFLY MET'MAP TEAM :

Programming & Development : Alexandra Zaïnal
Concept & original design : Baudouin d'Aumeries
Assistance for programming : Marc-Olivier Méhu
Technical & hardware support : Manuel Goepfert

Contact : metmap@orbifly.com




SOURCES & CREDITS :

   NOAA